Dunlevy, PA (15432)

4:22 PM EDT on March 29, 2015 (GMT -0400)
Belle Vernon | | Change Station
CLOSE
Current Station
Personal Weather Station
Location: Belle Vernon, PA
Elevation: 996 ft
Nearby Weather Stations

Elev 996 ft 40.12 °N, 79.85 °W | Updated 20 seconds ago

Clear
Clear
52.3 °F
Feels Like 52.3 °F
N
0.0
Wind Variable Wind from WSW
Gusts 0.0 mph

Today
High -- | Low -- °F
--% Chance of Precip.
Yesterday
High -- | Low -- °F
Precip. -- in
7:08 AM 7:40 PM
Waxing Gibbous, 74% visible
Pressure 30.23 in
Visibility 10.0 miles
Clouds Clear
Dew Point 26 °F
Humidity 36%
Rainfall 0.00 in
Snow Depth Not available.
UV 5 out of 12
Pollen 6.00 out of 12
Air Quality Not available.
Flu Activity Not available.
METAR KAGC 291953Z 19011G14KT 10SM CLR 06/M14 A3017 RMK AO2 SLP236 T00611144

More Conditions Fewer Conditions

Pressure 30.23 in
Visibility 10.0 miles
Clouds Clear
Dew Point 26 °F
Humidity 36%
Rainfall 0.00 in
Snow Depth Not available.
UV 5 out of 12
Pollen 6.00 out of 12
Air Quality Not available.
Flu Activity Not available.
METAR KAGC 291953Z 19011G14KT 10SM CLR 06/M14 A3017 RMK AO2 SLP236 T00611144

More Conditions Fewer Conditions

10-Day Weather Forecast

Almanac

Astronomy

Mar. 29, 2015 Rise Set
Actual Time
Civil Twilight
Nautical Twilight
Astronomical Twilight
Moon
Length of Visible Light
Length of Day
Tomorrow will be .
, % of the Moon is Illuminated

Today's Extremes

State Highs State Lows

Community

WunderPhotos

Upload Photos

1,809,344 photos uploaded!

WunderBlogs® & News

Nearby

Air Quality

  Air Quality AQ Index Pollutant
Not available.

Snow Depth

Station Depth Elevation

Earthquake Activity

City Distance Mag. Time & Date
Minimum magnitude displayed is 2.5.

Coastal Water Temperatures

Place Temperature

Stations

Nearby Weather Stations

Station Location Temp. Windchill Dew Point Humidity Wind Precip. Elev Updated Type